sensor_id;sensor_type;location;lat;lon;timestamp;P1;durP1;ratioP1;P2;durP2;ratioP2
71204;SDS011;58935;54.498;18.544;2023-07-31T00:02:14;4.90;;;2.20;;
71204;SDS011;58935;54.498;18.544;2023-07-31T00:04:40;3.60;;;2.00;;
71204;SDS011;58935;54.498;18.544;2023-07-31T00:07:05;7.00;;;2.40;;
71204;SDS011;58935;54.498;18.544;2023-07-31T00:09:32;9.30;;;2.20;;
71204;SDS011;58935;54.498;18.544;2023-07-31T00:11:59;6.80;;;2.20;;
71204;SDS011;58935;54.498;18.544;2023-07-31T00:14:24;11.90;;;2.60;;
71204;SDS011;58935;54.498;18.544;2023-07-31T00:16:50;7.30;;;2.30;;
71204;SDS011;58935;54.498;18.544;2023-07-31T00:19:15;3.90;;;2.10;;
71204;SDS011;58935;54.498;18.544;2023-07-31T00:21:41;3.50;;;2.40;;
71204;SDS011;58935;54.498;18.544;2023-07-31T00:24:06;3.40;;;2.40;;
71204;SDS011;58935;54.498;18.544;2023-07-31T00:26:32;5.20;;;2.50;;
71204;SDS011;58935;54.498;18.544;2023-07-31T00:28:57;4.60;;;2.30;;
71204;SDS011;58935;54.498;18.544;2023-07-31T00:31:22;3.80;;;2.20;;
71204;SDS011;58935;54.498;18.544;2023-07-31T00:33:48;7.20;;;2.40;;
71204;SDS011;58935;54.498;18.544;2023-07-31T00:36:13;5.20;;;2.40;;
71204;SDS011;58935;54.498;18.544;2023-07-31T00:38:39;3.30;;;2.30;;
71204;SDS011;58935;54.498;18.544;2023-07-31T00:41:04;4.50;;;2.40;;
71204;SDS011;58935;54.498;18.544;2023-07-31T00:43:29;4.10;;;2.20;;
71204;SDS011;58935;54.498;18.544;2023-07-31T00:45:55;5.30;;;2.60;;
71204;SDS011;58935;54.498;18.544;2023-07-31T00:48:21;7.50;;;2.90;;
71204;SDS011;58935;54.498;18.544;2023-07-31T00:50:46;3.10;;;2.50;;
71204;SDS011;58935;54.498;18.544;2023-07-31T00:53:13;5.10;;;2.70;;
71204;SDS011;58935;54.498;18.544;2023-07-31T00:55:39;6.20;;;2.60;;
71204;SDS011;58935;54.498;18.544;2023-07-31T00:58:05;7.00;;;2.50;;
71204;SDS011;58935;54.498;18.544;2023-07-31T01:00:30;4.80;;;2.60;;
71204;SDS011;58935;54.498;18.544;2023-07-31T01:02:56;7.30;;;2.60;;
71204;SDS011;58935;54.498;18.544;2023-07-31T01:05:36;3.90;;;2.50;;
71204;SDS011;58935;54.498;18.544;2023-07-31T01:08:25;5.20;;;2.10;;
71204;SDS011;58935;54.498;18.544;2023-07-31T01:11:14;4.60;;;2.10;;
71204;SDS011;58935;54.498;18.544;2023-07-31T01:13:44;3.50;;;1.90;;
71204;SDS011;58935;54.498;18.544;2023-07-31T01:16:10;3.30;;;2.10;;
71204;SDS011;58935;54.498;18.544;2023-07-31T01:18:36;8.60;;;2.50;;
71204;SDS011;58935;54.498;18.544;2023-07-31T01:21:12;10.40;;;2.10;;
71204;SDS011;58935;54.498;18.544;2023-07-31T01:24:13;2.90;;;2.10;;
71204;SDS011;58935;54.498;18.544;2023-07-31T01:26:53;7.20;;;2.80;;
71204;SDS011;58935;54.498;18.544;2023-07-31T01:29:38;3.10;;;2.20;;
71204;SDS011;58935;54.498;18.544;2023-07-31T01:32:11;2.40;;;2.10;;
71204;SDS011;58935;54.498;18.544;2023-07-31T01:34:39;7.80;;;2.50;;
71204;SDS011;58935;54.498;18.544;2023-07-31T01:37:06;4.90;;;2.50;;
71204;SDS011;58935;54.498;18.544;2023-07-31T01:39:31;3.20;;;2.30;;
71204;SDS011;58935;54.498;18.544;2023-07-31T01:41:57;2.70;;;2.30;;
71204;SDS011;58935;54.498;18.544;2023-07-31T01:44:22;3.50;;;2.50;;
71204;SDS011;58935;54.498;18.544;2023-07-31T01:46:48;4.90;;;3.00;;
71204;SDS011;58935;54.498;18.544;2023-07-31T01:49:13;2.90;;;2.40;;
71204;SDS011;58935;54.498;18.544;2023-07-31T01:51:38;4.50;;;2.40;;
71204;SDS011;58935;54.498;18.544;2023-07-31T01:54:04;2.10;;;2.00;;
71204;SDS011;58935;54.498;18.544;2023-07-31T01:56:29;7.20;;;2.50;;
71204;SDS011;58935;54.498;18.544;2023-07-31T01:58:54;6.00;;;2.10;;
71204;SDS011;58935;54.498;18.544;2023-07-31T02:01:20;4.20;;;2.10;;
71204;SDS011;58935;54.498;18.544;2023-07-31T02:03:45;4.90;;;2.10;;
71204;SDS011;58935;54.498;18.544;2023-07-31T02:06:11;2.70;;;2.10;;
71204;SDS011;58935;54.498;18.544;2023-07-31T02:08:36;3.40;;;1.90;;
71204;SDS011;58935;54.498;18.544;2023-07-31T02:11:01;3.30;;;1.70;;
71204;SDS011;58935;54.498;18.544;2023-07-31T02:13:27;4.20;;;1.80;;
71204;SDS011;58935;54.498;18.544;2023-07-31T02:19:35;2.70;;;1.80;;
71204;SDS011;58935;54.498;18.544;2023-07-31T02:22:00;2.20;;;1.70;;
71204;SDS011;58935;54.498;18.544;2023-07-31T02:26:51;3.50;;;2.20;;
71204;SDS011;58935;54.498;18.544;2023-07-31T02:29:16;4.20;;;2.10;;
71204;SDS011;58935;54.498;18.544;2023-07-31T02:31:41;3.50;;;2.30;;
71204;SDS011;58935;54.498;18.544;2023-07-31T02:34:07;2.60;;;1.90;;
71204;SDS011;58935;54.498;18.544;2023-07-31T02:36:32;2.50;;;1.80;;
71204;SDS011;58935;54.498;18.544;2023-07-31T02:38:57;4.90;;;2.10;;
71204;SDS011;58935;54.498;18.544;2023-07-31T02:41:23;5.40;;;2.00;;
71204;SDS011;58935;54.498;18.544;2023-07-31T02:43:48;2.50;;;1.80;;
71204;SDS011;58935;54.498;18.544;2023-07-31T02:46:13;11.80;;;2.10;;
71204;SDS011;58935;54.498;18.544;2023-07-31T02:48:39;3.30;;;2.00;;
71204;SDS011;58935;54.498;18.544;2023-07-31T02:51:04;3.50;;;2.20;;
71204;SDS011;58935;54.498;18.544;2023-07-31T02:53:29;11.10;;;2.30;;
71204;SDS011;58935;54.498;18.544;2023-07-31T02:55:55;3.70;;;2.30;;
71204;SDS011;58935;54.498;18.544;2023-07-31T02:58:20;2.30;;;2.00;;
71204;SDS011;58935;54.498;18.544;2023-07-31T03:00:45;5.60;;;2.00;;
71204;SDS011;58935;54.498;18.544;2023-07-31T03:03:11;2.40;;;2.20;;
71204;SDS011;58935;54.498;18.544;2023-07-31T03:05:37;5.00;;;2.00;;
71204;SDS011;58935;54.498;18.544;2023-07-31T03:08:03;5.70;;;2.40;;
71204;SDS011;58935;54.498;18.544;2023-07-31T03:10:29;6.00;;;2.40;;
71204;SDS011;58935;54.498;18.544;2023-07-31T03:12:54;7.30;;;2.90;;
71204;SDS011;58935;54.498;18.544;2023-07-31T03:15:20;3.80;;;2.10;;
71204;SDS011;58935;54.498;18.544;2023-07-31T03:17:45;4.60;;;2.30;;
71204;SDS011;58935;54.498;18.544;2023-07-31T03:20:11;6.60;;;2.40;;
71204;SDS011;58935;54.498;18.544;2023-07-31T03:22:36;3.70;;;2.10;;
71204;SDS011;58935;54.498;18.544;2023-07-31T03:25:03;7.50;;;2.20;;
71204;SDS011;58935;54.498;18.544;2023-07-31T03:27:29;4.90;;;2.50;;
71204;SDS011;58935;54.498;18.544;2023-07-31T03:29:54;5.10;;;2.20;;
71204;SDS011;58935;54.498;18.544;2023-07-31T03:32:20;10.20;;;2.50;;
71204;SDS011;58935;54.498;18.544;2023-07-31T03:34:45;4.50;;;2.80;;
71204;SDS011;58935;54.498;18.544;2023-07-31T03:37:11;7.60;;;2.60;;
71204;SDS011;58935;54.498;18.544;2023-07-31T03:39:36;6.80;;;2.70;;
71204;SDS011;58935;54.498;18.544;2023-07-31T03:42:02;7.60;;;2.70;;
71204;SDS011;58935;54.498;18.544;2023-07-31T03:44:27;9.60;;;2.90;;
71204;SDS011;58935;54.498;18.544;2023-07-31T03:46:53;5.20;;;2.20;;
71204;SDS011;58935;54.498;18.544;2023-07-31T03:49:18;6.10;;;2.10;;
71204;SDS011;58935;54.498;18.544;2023-07-31T03:51:43;4.00;;;2.40;;
71204;SDS011;58935;54.498;18.544;2023-07-31T03:54:09;2.90;;;2.70;;
71204;SDS011;58935;54.498;18.544;2023-07-31T03:56:35;5.20;;;2.60;;
71204;SDS011;58935;54.498;18.544;2023-07-31T03:59:01;4.10;;;2.40;;
71204;SDS011;58935;54.498;18.544;2023-07-31T04:01:26;3.40;;;2.20;;
71204;SDS011;58935;54.498;18.544;2023-07-31T04:03:52;7.80;;;2.80;;
71204;SDS011;58935;54.498;18.544;2023-07-31T04:06:17;10.40;;;2.70;;
71204;SDS011;58935;54.498;18.544;2023-07-31T04:08:44;7.50;;;2.70;;
71204;SDS011;58935;54.498;18.544;2023-07-31T04:11:10;6.90;;;2.60;;
71204;SDS011;58935;54.498;18.544;2023-07-31T04:13:37;6.60;;;2.70;;
71204;SDS011;58935;54.498;18.544;2023-07-31T04:16:03;5.60;;;2.20;;
71204;SDS011;58935;54.498;18.544;2023-07-31T04:18:29;9.20;;;3.00;;
71204;SDS011;58935;54.498;18.544;2023-07-31T04:20:56;4.00;;;2.30;;
71204;SDS011;58935;54.498;18.544;2023-07-31T04:23:24;11.80;;;2.80;;
71204;SDS011;58935;54.498;18.544;2023-07-31T04:25:50;5.00;;;2.70;;
71204;SDS011;58935;54.498;18.544;2023-07-31T04:28:15;5.20;;;3.20;;
71204;SDS011;58935;54.498;18.544;2023-07-31T04:30:41;6.50;;;2.60;;
71204;SDS011;58935;54.498;18.544;2023-07-31T04:35:32;7.00;;;2.60;;
71204;SDS011;58935;54.498;18.544;2023-07-31T04:37:57;7.50;;;2.60;;
71204;SDS011;58935;54.498;18.544;2023-07-31T04:40:22;9.90;;;2.50;;
71204;SDS011;58935;54.498;18.544;2023-07-31T04:42:47;10.80;;;2.70;;
71204;SDS011;58935;54.498;18.544;2023-07-31T04:45:14;7.50;;;2.40;;
71204;SDS011;58935;54.498;18.544;2023-07-31T04:47:39;5.40;;;2.00;;
71204;SDS011;58935;54.498;18.544;2023-07-31T04:50:05;7.40;;;2.60;;
71204;SDS011;58935;54.498;18.544;2023-07-31T04:52:31;7.90;;;2.60;;
71204;SDS011;58935;54.498;18.544;2023-07-31T04:54:57;4.60;;;2.50;;
71204;SDS011;58935;54.498;18.544;2023-07-31T04:57:22;9.60;;;2.80;;
71204;SDS011;58935;54.498;18.544;2023-07-31T04:59:47;6.30;;;2.30;;
71204;SDS011;58935;54.498;18.544;2023-07-31T05:02:13;5.90;;;2.40;;
71204;SDS011;58935;54.498;18.544;2023-07-31T05:04:39;5.30;;;2.30;;
71204;SDS011;58935;54.498;18.544;2023-07-31T05:07:04;5.80;;;2.30;;
71204;SDS011;58935;54.498;18.544;2023-07-31T05:09:30;9.90;;;2.60;;
71204;SDS011;58935;54.498;18.544;2023-07-31T05:11:55;7.40;;;2.30;;
71204;SDS011;58935;54.498;18.544;2023-07-31T05:14:20;5.80;;;2.30;;
71204;SDS011;58935;54.498;18.544;2023-07-31T05:16:46;4.90;;;2.40;;
71204;SDS011;58935;54.498;18.544;2023-07-31T05:19:11;4.60;;;2.20;;
71204;SDS011;58935;54.498;18.544;2023-07-31T05:21:36;6.20;;;2.50;;
71204;SDS011;58935;54.498;18.544;2023-07-31T05:24:02;4.40;;;2.40;;
71204;SDS011;58935;54.498;18.544;2023-07-31T05:26:28;6.90;;;2.50;;
71204;SDS011;58935;54.498;18.544;2023-07-31T05:28:53;10.00;;;2.50;;
71204;SDS011;58935;54.498;18.544;2023-07-31T05:31:19;6.00;;;2.40;;
71204;SDS011;58935;54.498;18.544;2023-07-31T05:33:45;11.20;;;2.80;;
71204;SDS011;58935;54.498;18.544;2023-07-31T05:36:11;6.70;;;2.60;;
71204;SDS011;58935;54.498;18.544;2023-07-31T05:38:37;7.80;;;2.40;;
71204;SDS011;58935;54.498;18.544;2023-07-31T05:41:02;4.30;;;2.10;;
71204;SDS011;58935;54.498;18.544;2023-07-31T05:43:27;4.50;;;2.10;;
71204;SDS011;58935;54.498;18.544;2023-07-31T05:45:52;8.20;;;2.30;;
71204;SDS011;58935;54.498;18.544;2023-07-31T05:48:18;5.90;;;2.10;;
71204;SDS011;58935;54.498;18.544;2023-07-31T05:50:44;6.80;;;2.10;;
71204;SDS011;58935;54.498;18.544;2023-07-31T05:53:09;4.80;;;2.10;;
71204;SDS011;58935;54.498;18.544;2023-07-31T05:55:35;8.80;;;2.50;;
71204;SDS011;58935;54.498;18.544;2023-07-31T05:58:01;6.70;;;2.20;;
71204;SDS011;58935;54.498;18.544;2023-07-31T06:00:27;7.80;;;2.40;;
71204;SDS011;58935;54.498;18.544;2023-07-31T06:02:53;7.40;;;2.60;;
71204;SDS011;58935;54.498;18.544;2023-07-31T06:05:18;7.80;;;2.20;;
71204;SDS011;58935;54.498;18.544;2023-07-31T06:07:44;6.20;;;2.20;;
71204;SDS011;58935;54.498;18.544;2023-07-31T06:10:09;8.40;;;2.80;;
71204;SDS011;58935;54.498;18.544;2023-07-31T06:12:35;9.50;;;2.40;;
71204;SDS011;58935;54.498;18.544;2023-07-31T06:15:02;7.70;;;2.10;;
71204;SDS011;58935;54.498;18.544;2023-07-31T06:17:28;4.10;;;2.20;;
71204;SDS011;58935;54.498;18.544;2023-07-31T06:19:56;8.70;;;2.30;;
71204;SDS011;58935;54.498;18.544;2023-07-31T06:22:22;6.30;;;2.30;;
71204;SDS011;58935;54.498;18.544;2023-07-31T06:24:48;6.00;;;2.00;;
71204;SDS011;58935;54.498;18.544;2023-07-31T06:27:13;8.90;;;2.30;;
71204;SDS011;58935;54.498;18.544;2023-07-31T06:29:38;7.00;;;2.20;;
71204;SDS011;58935;54.498;18.544;2023-07-31T06:32:04;6.10;;;2.50;;
71204;SDS011;58935;54.498;18.544;2023-07-31T06:34:29;8.30;;;2.10;;
71204;SDS011;58935;54.498;18.544;2023-07-31T06:36:56;8.70;;;2.30;;
71204;SDS011;58935;54.498;18.544;2023-07-31T06:39:21;12.00;;;3.00;;
71204;SDS011;58935;54.498;18.544;2023-07-31T06:41:47;3.90;;;2.20;;
71204;SDS011;58935;54.498;18.544;2023-07-31T06:44:12;6.80;;;2.20;;
71204;SDS011;58935;54.498;18.544;2023-07-31T06:46:38;5.90;;;2.10;;
71204;SDS011;58935;54.498;18.544;2023-07-31T06:49:03;6.20;;;2.00;;
71204;SDS011;58935;54.498;18.544;2023-07-31T06:51:29;10.20;;;2.30;;
71204;SDS011;58935;54.498;18.544;2023-07-31T06:53:57;6.70;;;2.30;;
71204;SDS011;58935;54.498;18.544;2023-07-31T06:56:22;6.80;;;2.30;;
71204;SDS011;58935;54.498;18.544;2023-07-31T06:58:48;6.70;;;2.20;;
71204;SDS011;58935;54.498;18.544;2023-07-31T07:01:14;7.40;;;1.90;;
71204;SDS011;58935;54.498;18.544;2023-07-31T07:03:39;4.80;;;1.60;;
71204;SDS011;58935;54.498;18.544;2023-07-31T07:06:05;7.60;;;2.40;;
71204;SDS011;58935;54.498;18.544;2023-07-31T07:08:30;7.20;;;2.00;;
71204;SDS011;58935;54.498;18.544;2023-07-31T07:10:55;6.00;;;2.50;;
71204;SDS011;58935;54.498;18.544;2023-07-31T07:13:21;6.50;;;1.80;;
71204;SDS011;58935;54.498;18.544;2023-07-31T07:15:48;5.50;;;1.80;;
71204;SDS011;58935;54.498;18.544;2023-07-31T07:18:14;4.50;;;2.00;;
71204;SDS011;58935;54.498;18.544;2023-07-31T07:20:46;4.90;;;2.00;;
71204;SDS011;58935;54.498;18.544;2023-07-31T07:23:16;4.30;;;1.50;;
71204;SDS011;58935;54.498;18.544;2023-07-31T07:25:42;4.80;;;1.80;;
71204;SDS011;58935;54.498;18.544;2023-07-31T07:28:09;3.10;;;1.70;;
71204;SDS011;58935;54.498;18.544;2023-07-31T07:30:35;2.90;;;1.60;;
71204;SDS011;58935;54.498;18.544;2023-07-31T07:33:01;4.50;;;1.80;;
71204;SDS011;58935;54.498;18.544;2023-07-31T07:35:26;4.40;;;1.70;;
71204;SDS011;58935;54.498;18.544;2023-07-31T07:37:51;3.00;;;1.50;;
71204;SDS011;58935;54.498;18.544;2023-07-31T07:40:17;5.10;;;1.50;;
71204;SDS011;58935;54.498;18.544;2023-07-31T07:42:42;2.00;;;1.30;;
71204;SDS011;58935;54.498;18.544;2023-07-31T07:45:08;4.40;;;1.40;;
71204;SDS011;58935;54.498;18.544;2023-07-31T07:47:34;2.70;;;1.40;;
71204;SDS011;58935;54.498;18.544;2023-07-31T07:49:59;3.10;;;1.30;;
71204;SDS011;58935;54.498;18.544;2023-07-31T07:52:25;3.60;;;1.50;;
71204;SDS011;58935;54.498;18.544;2023-07-31T07:54:50;4.10;;;1.50;;
71204;SDS011;58935;54.498;18.544;2023-07-31T07:57:16;4.10;;;1.60;;
71204;SDS011;58935;54.498;18.544;2023-07-31T07:59:41;3.30;;;1.30;;
71204;SDS011;58935;54.498;18.544;2023-07-31T08:02:07;3.70;;;1.50;;
71204;SDS011;58935;54.498;18.544;2023-07-31T08:04:32;5.20;;;1.30;;
71204;SDS011;58935;54.498;18.544;2023-07-31T08:06:58;4.00;;;1.30;;
71204;SDS011;58935;54.498;18.544;2023-07-31T08:09:23;3.90;;;1.50;;
71204;SDS011;58935;54.498;18.544;2023-07-31T08:11:48;2.40;;;1.40;;
71204;SDS011;58935;54.498;18.544;2023-07-31T08:14:14;4.60;;;1.30;;
71204;SDS011;58935;54.498;18.544;2023-07-31T08:16:39;6.50;;;1.70;;
71204;SDS011;58935;54.498;18.544;2023-07-31T08:19:05;5.60;;;1.30;;
71204;SDS011;58935;54.498;18.544;2023-07-31T08:21:31;3.00;;;1.30;;
71204;SDS011;58935;54.498;18.544;2023-07-31T08:23:57;5.40;;;1.40;;
71204;SDS011;58935;54.498;18.544;2023-07-31T08:26:22;2.30;;;1.10;;
71204;SDS011;58935;54.498;18.544;2023-07-31T08:28:48;3.60;;;1.30;;
71204;SDS011;58935;54.498;18.544;2023-07-31T08:31:13;1.10;;;1.00;;
71204;SDS011;58935;54.498;18.544;2023-07-31T08:33:39;3.00;;;1.30;;
71204;SDS011;58935;54.498;18.544;2023-07-31T08:36:05;4.00;;;1.40;;
71204;SDS011;58935;54.498;18.544;2023-07-31T08:38:31;3.70;;;1.20;;
71204;SDS011;58935;54.498;18.544;2023-07-31T08:40:57;2.60;;;1.20;;
71204;SDS011;58935;54.498;18.544;2023-07-31T08:43:27;2.60;;;1.20;;
71204;SDS011;58935;54.498;18.544;2023-07-31T08:45:53;1.70;;;1.00;;
71204;SDS011;58935;54.498;18.544;2023-07-31T08:48:21;4.00;;;1.50;;
71204;SDS011;58935;54.498;18.544;2023-07-31T08:50:48;1.70;;;1.30;;
71204;SDS011;58935;54.498;18.544;2023-07-31T08:53:14;5.70;;;1.30;;
71204;SDS011;58935;54.498;18.544;2023-07-31T08:55:40;2.10;;;1.30;;
71204;SDS011;58935;54.498;18.544;2023-07-31T08:58:05;2.80;;;1.20;;
71204;SDS011;58935;54.498;18.544;2023-07-31T09:00:32;1.90;;;1.00;;
71204;SDS011;58935;54.498;18.544;2023-07-31T09:03:08;4.30;;;1.20;;
71204;SDS011;58935;54.498;18.544;2023-07-31T09:05:38;2.30;;;1.30;;
71204;SDS011;58935;54.498;18.544;2023-07-31T09:08:13;2.80;;;1.40;;
71204;SDS011;58935;54.498;18.544;2023-07-31T09:10:44;1.50;;;1.10;;
71204;SDS011;58935;54.498;18.544;2023-07-31T09:13:12;5.30;;;1.20;;
71204;SDS011;58935;54.498;18.544;2023-07-31T09:15:39;2.50;;;1.30;;
71204;SDS011;58935;54.498;18.544;2023-07-31T09:18:06;5.10;;;1.00;;
71204;SDS011;58935;54.498;18.544;2023-07-31T09:20:33;2.70;;;1.20;;
71204;SDS011;58935;54.498;18.544;2023-07-31T09:23:12;2.80;;;1.30;;
71204;SDS011;58935;54.498;18.544;2023-07-31T09:25:40;2.20;;;1.10;;
71204;SDS011;58935;54.498;18.544;2023-07-31T09:28:10;2.50;;;1.00;;
71204;SDS011;58935;54.498;18.544;2023-07-31T09:30:49;1.80;;;1.10;;
71204;SDS011;58935;54.498;18.544;2023-07-31T09:33:16;3.60;;;1.20;;
71204;SDS011;58935;54.498;18.544;2023-07-31T09:35:42;1.50;;;1.10;;
71204;SDS011;58935;54.498;18.544;2023-07-31T09:38:11;1.20;;;0.90;;
71204;SDS011;58935;54.498;18.544;2023-07-31T09:40:40;2.90;;;1.10;;
71204;SDS011;58935;54.498;18.544;2023-07-31T09:43:08;3.70;;;1.00;;
71204;SDS011;58935;54.498;18.544;2023-07-31T09:45:41;1.00;;;0.90;;
71204;SDS011;58935;54.498;18.544;2023-07-31T09:50:38;2.00;;;1.20;;
71204;SDS011;58935;54.498;18.544;2023-07-31T09:53:05;2.70;;;1.10;;
71204;SDS011;58935;54.498;18.544;2023-07-31T09:55:32;3.40;;;1.00;;
71204;SDS011;58935;54.498;18.544;2023-07-31T09:57:58;1.00;;;0.90;;
71204;SDS011;58935;54.498;18.544;2023-07-31T10:00:24;1.80;;;1.20;;
71204;SDS011;58935;54.498;18.544;2023-07-31T10:02:54;2.50;;;1.10;;
71204;SDS011;58935;54.498;18.544;2023-07-31T10:05:21;3.40;;;0.90;;
71204;SDS011;58935;54.498;18.544;2023-07-31T10:07:59;1.80;;;0.90;;
71204;SDS011;58935;54.498;18.544;2023-07-31T10:10:26;3.50;;;1.20;;
71204;SDS011;58935;54.498;18.544;2023-07-31T10:12:53;1.70;;;1.20;;
71204;SDS011;58935;54.498;18.544;2023-07-31T10:15:21;2.40;;;1.30;;
71204;SDS011;58935;54.498;18.544;2023-07-31T10:17:47;1.10;;;0.90;;
71204;SDS011;58935;54.498;18.544;2023-07-31T10:20:15;2.60;;;1.10;;
71204;SDS011;58935;54.498;18.544;2023-07-31T10:22:42;1.20;;;1.00;;
71204;SDS011;58935;54.498;18.544;2023-07-31T10:25:09;5.00;;;1.40;;
71204;SDS011;58935;54.498;18.544;2023-07-31T10:27:36;1.90;;;1.20;;
71204;SDS011;58935;54.498;18.544;2023-07-31T10:30:05;2.30;;;1.60;;
71204;SDS011;58935;54.498;18.544;2023-07-31T10:32:37;3.30;;;1.00;;
71204;SDS011;58935;54.498;18.544;2023-07-31T10:35:05;1.30;;;1.00;;
71204;SDS011;58935;54.498;18.544;2023-07-31T10:37:40;2.20;;;1.20;;
71204;SDS011;58935;54.498;18.544;2023-07-31T10:40:17;3.20;;;1.20;;
71204;SDS011;58935;54.498;18.544;2023-07-31T10:42:53;1.10;;;1.10;;
71204;SDS011;58935;54.498;18.544;2023-07-31T10:45:32;2.00;;;1.20;;
71204;SDS011;58935;54.498;18.544;2023-07-31T10:48:06;2.70;;;1.00;;
71204;SDS011;58935;54.498;18.544;2023-07-31T10:50:40;1.50;;;1.00;;
71204;SDS011;58935;54.498;18.544;2023-07-31T10:53:25;2.50;;;1.00;;
71204;SDS011;58935;54.498;18.544;2023-07-31T10:56:00;1.70;;;1.00;;
71204;SDS011;58935;54.498;18.544;2023-07-31T10:58:26;1.50;;;0.80;;
71204;SDS011;58935;54.498;18.544;2023-07-31T11:00:57;0.80;;;0.70;;
71204;SDS011;58935;54.498;18.544;2023-07-31T11:03:26;3.50;;;1.40;;
71204;SDS011;58935;54.498;18.544;2023-07-31T11:06:06;1.60;;;0.80;;
71204;SDS011;58935;54.498;18.544;2023-07-31T11:08:34;4.00;;;1.10;;
71204;SDS011;58935;54.498;18.544;2023-07-31T11:11:08;1.90;;;1.00;;
71204;SDS011;58935;54.498;18.544;2023-07-31T11:13:41;1.70;;;0.80;;
71204;SDS011;58935;54.498;18.544;2023-07-31T11:16:13;3.30;;;1.00;;
71204;SDS011;58935;54.498;18.544;2023-07-31T11:18:43;1.10;;;1.10;;
71204;SDS011;58935;54.498;18.544;2023-07-31T11:21:15;1.00;;;0.90;;
71204;SDS011;58935;54.498;18.544;2023-07-31T11:23:46;2.20;;;0.90;;
71204;SDS011;58935;54.498;18.544;2023-07-31T11:26:12;3.20;;;1.20;;
71204;SDS011;58935;54.498;18.544;2023-07-31T11:28:38;2.20;;;0.90;;
71204;SDS011;58935;54.498;18.544;2023-07-31T11:31:05;2.70;;;0.80;;
71204;SDS011;58935;54.498;18.544;2023-07-31T11:33:34;4.40;;;1.10;;
71204;SDS011;58935;54.498;18.544;2023-07-31T11:35:59;1.10;;;0.90;;
71204;SDS011;58935;54.498;18.544;2023-07-31T11:38:27;1.40;;;1.10;;
71204;SDS011;58935;54.498;18.544;2023-07-31T11:40:56;3.00;;;1.40;;
71204;SDS011;58935;54.498;18.544;2023-07-31T11:43:23;2.00;;;1.20;;
71204;SDS011;58935;54.498;18.544;2023-07-31T11:45:54;2.50;;;1.30;;
71204;SDS011;58935;54.498;18.544;2023-07-31T11:48:29;1.40;;;1.00;;
71204;SDS011;58935;54.498;18.544;2023-07-31T11:50:59;3.00;;;1.10;;
71204;SDS011;58935;54.498;18.544;2023-07-31T11:53:43;2.50;;;1.10;;
71204;SDS011;58935;54.498;18.544;2023-07-31T11:56:13;2.50;;;1.10;;
71204;SDS011;58935;54.498;18.544;2023-07-31T11:58:43;1.50;;;1.00;;
71204;SDS011;58935;54.498;18.544;2023-07-31T12:01:11;5.30;;;1.10;;
71204;SDS011;58935;54.498;18.544;2023-07-31T12:03:37;4.00;;;1.30;;
71204;SDS011;58935;54.498;18.544;2023-07-31T12:06:03;2.20;;;1.10;;
71204;SDS011;58935;54.498;18.544;2023-07-31T12:08:29;4.10;;;1.20;;
71204;SDS011;58935;54.498;18.544;2023-07-31T12:11:02;2.80;;;1.50;;
71204;SDS011;58935;54.498;18.544;2023-07-31T12:13:31;3.10;;;1.50;;
71204;SDS011;58935;54.498;18.544;2023-07-31T12:15:59;8.90;;;1.50;;
71204;SDS011;58935;54.498;18.544;2023-07-31T12:18:30;3.70;;;1.10;;
71204;SDS011;58935;54.498;18.544;2023-07-31T12:21:01;6.50;;;1.30;;
71204;SDS011;58935;54.498;18.544;2023-07-31T12:23:31;4.80;;;1.40;;
71204;SDS011;58935;54.498;18.544;2023-07-31T12:26:10;5.40;;;1.40;;
71204;SDS011;58935;54.498;18.544;2023-07-31T12:28:44;2.80;;;1.60;;
71204;SDS011;58935;54.498;18.544;2023-07-31T12:31:13;7.10;;;1.50;;
71204;SDS011;58935;54.498;18.544;2023-07-31T12:33:41;1.80;;;1.40;;
71204;SDS011;58935;54.498;18.544;2023-07-31T12:36:12;2.20;;;1.10;;
71204;SDS011;58935;54.498;18.544;2023-07-31T12:38:42;4.80;;;1.50;;
71204;SDS011;58935;54.498;18.544;2023-07-31T12:41:07;1.90;;;1.20;;
71204;SDS011;58935;54.498;18.544;2023-07-31T12:43:38;2.60;;;1.40;;
71204;SDS011;58935;54.498;18.544;2023-07-31T12:46:05;5.80;;;1.40;;
71204;SDS011;58935;54.498;18.544;2023-07-31T12:48:33;3.80;;;1.60;;
71204;SDS011;58935;54.498;18.544;2023-07-31T12:50:59;1.90;;;1.30;;
71204;SDS011;58935;54.498;18.544;2023-07-31T12:53:25;6.00;;;1.70;;
71204;SDS011;58935;54.498;18.544;2023-07-31T12:55:50;2.70;;;1.50;;
71204;SDS011;58935;54.498;18.544;2023-07-31T12:58:16;4.00;;;1.20;;
71204;SDS011;58935;54.498;18.544;2023-07-31T13:00:41;3.20;;;1.60;;
71204;SDS011;58935;54.498;18.544;2023-07-31T13:03:07;2.50;;;1.20;;
71204;SDS011;58935;54.498;18.544;2023-07-31T13:05:32;6.40;;;1.50;;
71204;SDS011;58935;54.498;18.544;2023-07-31T13:07:58;7.50;;;1.60;;
71204;SDS011;58935;54.498;18.544;2023-07-31T13:10:24;2.40;;;1.40;;
71204;SDS011;58935;54.498;18.544;2023-07-31T13:12:51;2.70;;;1.60;;
71204;SDS011;58935;54.498;18.544;2023-07-31T13:15:16;4.60;;;1.30;;
71204;SDS011;58935;54.498;18.544;2023-07-31T13:17:41;8.00;;;1.60;;
71204;SDS011;58935;54.498;18.544;2023-07-31T13:20:07;4.80;;;1.50;;
71204;SDS011;58935;54.498;18.544;2023-07-31T13:22:33;3.10;;;1.30;;
71204;SDS011;58935;54.498;18.544;2023-07-31T13:24:58;2.60;;;1.50;;
71204;SDS011;58935;54.498;18.544;2023-07-31T13:27:24;5.00;;;1.60;;
71204;SDS011;58935;54.498;18.544;2023-07-31T13:29:51;3.80;;;1.80;;
71204;SDS011;58935;54.498;18.544;2023-07-31T13:32:18;4.40;;;1.50;;
71204;SDS011;58935;54.498;18.544;2023-07-31T13:34:45;7.40;;;1.80;;
71204;SDS011;58935;54.498;18.544;2023-07-31T13:37:11;2.30;;;1.60;;
71204;SDS011;58935;54.498;18.544;2023-07-31T13:39:37;1.90;;;1.20;;
71204;SDS011;58935;54.498;18.544;2023-07-31T13:42:03;7.70;;;1.50;;
71204;SDS011;58935;54.498;18.544;2023-07-31T13:44:31;4.60;;;1.30;;
71204;SDS011;58935;54.498;18.544;2023-07-31T13:46:57;4.80;;;1.60;;
71204;SDS011;58935;54.498;18.544;2023-07-31T13:49:22;3.20;;;1.50;;
71204;SDS011;58935;54.498;18.544;2023-07-31T13:51:48;3.40;;;1.60;;
71204;SDS011;58935;54.498;18.544;2023-07-31T13:54:13;3.70;;;1.70;;
71204;SDS011;58935;54.498;18.544;2023-07-31T13:56:40;11.80;;;8.20;;
71204;SDS011;58935;54.498;18.544;2023-07-31T13:59:05;3.10;;;1.70;;
71204;SDS011;58935;54.498;18.544;2023-07-31T14:01:31;3.90;;;1.50;;
71204;SDS011;58935;54.498;18.544;2023-07-31T14:03:56;5.10;;;1.50;;
71204;SDS011;58935;54.498;18.544;2023-07-31T14:06:21;2.60;;;1.30;;
71204;SDS011;58935;54.498;18.544;2023-07-31T14:08:47;5.70;;;1.50;;
71204;SDS011;58935;54.498;18.544;2023-07-31T14:11:12;2.80;;;1.70;;
71204;SDS011;58935;54.498;18.544;2023-07-31T14:13:38;3.20;;;1.40;;
71204;SDS011;58935;54.498;18.544;2023-07-31T14:16:03;5.10;;;1.30;;
71204;SDS011;58935;54.498;18.544;2023-07-31T14:18:29;4.10;;;1.30;;
71204;SDS011;58935;54.498;18.544;2023-07-31T14:20:54;1.90;;;1.50;;
71204;SDS011;58935;54.498;18.544;2023-07-31T14:23:20;4.90;;;1.60;;
71204;SDS011;58935;54.498;18.544;2023-07-31T14:25:46;6.60;;;1.90;;
71204;SDS011;58935;54.498;18.544;2023-07-31T14:28:12;2.70;;;1.60;;
71204;SDS011;58935;54.498;18.544;2023-07-31T14:30:37;5.70;;;1.60;;
71204;SDS011;58935;54.498;18.544;2023-07-31T14:33:03;1.70;;;1.40;;
71204;SDS011;58935;54.498;18.544;2023-07-31T14:35:28;4.20;;;1.40;;
71204;SDS011;58935;54.498;18.544;2023-07-31T14:37:54;3.60;;;1.40;;
71204;SDS011;58935;54.498;18.544;2023-07-31T14:40:19;6.20;;;1.40;;
71204;SDS011;58935;54.498;18.544;2023-07-31T14:42:45;3.00;;;1.20;;
71204;SDS011;58935;54.498;18.544;2023-07-31T14:45:10;2.10;;;1.30;;